createdAt,value
2019-04-28T00:02:31.655Z,24.4
2019-04-28T00:05:37.841Z,24.4
2019-04-28T00:08:46.083Z,24.4
2019-04-28T00:11:52.284Z,24.4
2019-04-28T00:14:58.456Z,24.4
2019-04-28T00:18:06.967Z,24.4
2019-04-28T00:21:15.229Z,24.4
2019-04-28T00:24:23.002Z,24.3
2019-04-28T00:27:29.328Z,24.4
2019-04-28T00:30:37.304Z,24.4
2019-04-28T00:33:45.472Z,24.3
2019-04-28T00:36:51.716Z,24.3
2019-04-28T00:39:57.843Z,24.3
2019-04-28T00:43:06.126Z,24.3
2019-04-28T00:46:14.178Z,24.3
2019-04-28T00:49:21.336Z,24.3
2019-04-28T00:52:29.038Z,24.3
2019-04-28T00:55:37.020Z,24.3
2019-04-28T00:58:44.933Z,24.3
2019-04-28T01:01:51.390Z,24.3
2019-04-28T01:04:57.604Z,24.3
2019-04-28T01:08:06.019Z,24.3
2019-04-28T01:11:14.948Z,24.3
2019-04-28T01:14:21.423Z,24.3
2019-04-28T01:17:29.523Z,24.3
2019-04-28T01:20:35.842Z,24.3
2019-04-28T01:23:44.208Z,24.3
2019-04-28T01:26:50.800Z,24.3
2019-04-28T01:30:06.109Z,24.3
2019-04-28T01:33:16.889Z,24.3
2019-04-28T01:36:24.994Z,24.3
2019-04-28T01:39:32.165Z,24.2
2019-04-28T01:42:38.294Z,24.2
2019-04-28T01:45:46.411Z,24.2
2019-04-28T01:48:54.715Z,24.2
2019-04-28T01:52:01.250Z,24.2
2019-04-28T01:55:10.306Z,24.2
2019-04-28T01:58:16.562Z,24.2
2019-04-28T02:01:25.538Z,24.2
2019-04-28T02:04:33.534Z,24.2
2019-04-28T02:07:40.698Z,24.2
2019-04-28T02:10:47.196Z,24.2
2019-04-28T02:13:55.384Z,24.2
2019-04-28T02:17:03.606Z,24.2
2019-04-28T02:20:10.449Z,24.2
2019-04-28T02:23:16.708Z,24.2
2019-04-28T02:26:24.778Z,24.2
2019-04-28T02:29:32.925Z,24.1
2019-04-28T02:32:40.677Z,24.1
2019-04-28T02:35:47.241Z,24.1
2019-04-28T02:38:56.188Z,24.1
2019-04-28T02:42:04.678Z,24.1
2019-04-28T02:45:11.751Z,24.1
2019-04-28T02:48:20.889Z,24.1
2019-04-28T02:51:27.253Z,24.1
2019-04-28T02:54:35.883Z,24.1
2019-04-28T02:57:44.836Z,24.1
2019-04-28T03:01:02.447Z,24.1
2019-04-28T03:04:33.959Z,24.1
2019-04-28T03:07:44.766Z,24
2019-04-28T03:10:51.172Z,24
2019-04-28T03:13:57.351Z,24
2019-04-28T03:17:06.712Z,24
2019-04-28T03:20:16.237Z,24
2019-04-28T03:23:25.433Z,24
2019-04-28T03:26:34.894Z,24
2019-04-28T03:29:40.997Z,24
2019-04-28T03:32:54.819Z,24
2019-04-28T03:36:54.548Z,24
2019-04-28T03:40:03.634Z,24
2019-04-28T03:43:10.343Z,24
2019-04-28T03:46:20.575Z,24
2019-04-28T03:49:26.831Z,24
2019-04-28T03:52:35.800Z,24
2019-04-28T03:55:45.988Z,23.9
2019-04-28T03:58:55.062Z,24
2019-04-28T04:02:04.332Z,24
2019-04-28T04:05:11.199Z,24
2019-04-28T04:08:17.608Z,24.1
2019-04-28T04:11:32.186Z,24.2
2019-04-28T04:14:40.949Z,24.1
2019-04-28T04:17:47.465Z,24.1
2019-04-28T04:20:55.967Z,24.1
2019-04-28T04:24:04.666Z,24.1
2019-04-28T04:27:10.867Z,24.2
2019-04-28T04:30:17.190Z,24.4
2019-04-28T04:33:25.915Z,24.7
2019-04-28T04:36:35.307Z,24.9
2019-04-28T04:39:44.935Z,24.8
2019-04-28T04:42:51.102Z,24.9
2019-04-28T04:45:57.334Z,25.1
2019-04-28T04:49:05.963Z,25.2
2019-04-28T04:52:15.173Z,25.4
2019-04-28T04:55:23.487Z,25.7
2019-04-28T04:58:30.461Z,25.7
2019-04-28T05:01:36.834Z,25.8
2019-04-28T05:04:45.788Z,25.8
2019-04-28T05:07:53.755Z,25.8
2019-04-28T05:11:00.090Z,25.8
2019-04-28T05:14:07.523Z,25.7
2019-04-28T05:17:17.380Z,25.7
2019-04-28T05:20:25.424Z,25.6
2019-04-28T05:23:33.564Z,25.6
2019-04-28T05:26:40.820Z,25.6
2019-04-28T05:30:00.952Z,25.6
2019-04-28T05:33:13.124Z,25.6
2019-04-28T05:36:20.380Z,25.6
2019-04-28T05:39:26.714Z,25.7
2019-04-28T05:42:34.891Z,25.7
2019-04-28T05:45:42.690Z,25.7
2019-04-28T05:48:49.440Z,25.7
2019-04-28T05:51:57.301Z,25.8
2019-04-28T05:55:05.159Z,25.8
2019-04-28T05:58:11.264Z,25.8
2019-04-28T06:01:17.441Z,25.8
2019-04-28T06:04:25.440Z,25.8
2019-04-28T06:07:33.721Z,25.8
2019-04-28T06:10:40.049Z,25.8
2019-04-28T06:13:46.180Z,25.8
2019-04-28T06:16:55.960Z,25.9
2019-04-28T06:20:04.321Z,25.9
2019-04-28T06:23:10.511Z,25.9
2019-04-28T06:26:16.797Z,26
2019-04-28T06:29:22.995Z,26
2019-04-28T06:32:29.136Z,26
2019-04-28T06:35:35.403Z,26
2019-04-28T06:38:41.666Z,26
2019-04-28T06:41:47.814Z,26.1
2019-04-28T06:44:53.992Z,26.1
2019-04-28T06:48:00.142Z,26.1
2019-04-28T06:51:06.354Z,26.1
2019-04-28T06:54:12.596Z,26.1
2019-04-28T06:57:18.737Z,26.2
2019-04-28T07:00:24.964Z,26.2
2019-04-28T07:03:31.211Z,26.2
2019-04-28T07:06:37.435Z,26.2
2019-04-28T07:09:43.598Z,26.2
2019-04-28T07:12:49.789Z,26.2
2019-04-28T07:15:55.977Z,26.3
2019-04-28T07:19:02.203Z,26.3
2019-04-28T07:22:08.428Z,26.3
2019-04-28T07:25:14.627Z,26.3
2019-04-28T07:28:20.915Z,26.3
2019-04-28T07:31:27.121Z,26.3
2019-04-28T07:34:33.410Z,26.4
2019-04-28T07:37:39.655Z,26.4
2019-04-28T07:40:45.910Z,26.4
2019-04-28T07:43:52.096Z,26.4
2019-04-28T07:46:58.285Z,26.4
2019-04-28T07:50:04.597Z,26.4
2019-04-28T07:53:10.775Z,26.5
2019-04-28T07:56:16.977Z,26.4
2019-04-28T07:59:23.149Z,26.4
2019-04-28T08:02:29.525Z,26.4
2019-04-28T08:05:35.719Z,26.5
2019-04-28T08:08:41.904Z,26.4
2019-04-28T08:11:48.060Z,26.4
2019-04-28T08:14:54.287Z,26.4
2019-04-28T08:18:00.447Z,26.4
2019-04-28T08:21:06.651Z,26.4
2019-04-28T08:24:12.814Z,26.4
2019-04-28T08:27:18.936Z,26.4
2019-04-28T08:30:25.137Z,26.4
2019-04-28T08:33:33.210Z,26.4
2019-04-28T08:36:39.592Z,26.4
2019-04-28T08:39:45.788Z,26.4
2019-04-28T08:42:52.069Z,26.4
2019-04-28T08:46:00.985Z,26.4
2019-04-28T08:49:07.169Z,26.4
2019-04-28T08:52:13.362Z,26.4
2019-04-28T08:55:19.582Z,26.4
2019-04-28T08:58:25.703Z,26.4
2019-04-28T09:01:34.286Z,26.3
2019-04-28T09:04:40.462Z,26.3
2019-04-28T09:07:46.704Z,26.3
2019-04-28T09:10:55.858Z,26.3
2019-04-28T09:14:02.139Z,26.3
2019-04-28T09:17:08.348Z,26.3
2019-04-28T09:20:14.505Z,26.3
2019-04-28T09:23:23.605Z,26.3
2019-04-28T09:26:29.868Z,26.3
2019-04-28T09:29:36.164Z,26.3
2019-04-28T09:32:42.378Z,26.3
2019-04-28T09:35:48.480Z,26.3
2019-04-28T09:38:54.757Z,26.3
2019-04-28T09:42:00.975Z,26.3
2019-04-28T09:45:07.241Z,26.3
2019-04-28T09:48:13.363Z,26.3
2019-04-28T09:51:19.528Z,26.3
2019-04-28T09:54:25.744Z,26.3
2019-04-28T09:57:31.948Z,26.3
2019-04-28T10:00:38.201Z,26.3
2019-04-28T10:03:44.447Z,26.3
2019-04-28T10:06:50.656Z,26.3
2019-04-28T10:09:56.826Z,26.3
2019-04-28T10:13:02.994Z,26.3
2019-04-28T10:16:09.190Z,26.3
2019-04-28T10:19:15.366Z,26.2
2019-04-28T10:22:21.632Z,26.3
2019-04-28T10:25:27.906Z,26.3
2019-04-28T10:28:34.082Z,26.3
2019-04-28T10:31:40.294Z,26.3
2019-04-28T10:34:54.636Z,26.3
2019-04-28T10:38:01.297Z,26.3
2019-04-28T10:41:07.621Z,26.3
2019-04-28T10:44:13.777Z,26.3
2019-04-28T10:47:20.033Z,26.3
2019-04-28T10:50:26.339Z,26.3
2019-04-28T10:53:32.555Z,26.3
2019-04-28T10:56:39.008Z,26.3
2019-04-28T10:59:45.215Z,26.2
2019-04-28T11:02:51.428Z,26.3
2019-04-28T11:05:57.637Z,26.3
2019-04-28T11:09:03.769Z,26.3
2019-04-28T11:12:09.974Z,26.3
2019-04-28T11:15:16.163Z,26.3
2019-04-28T11:18:22.476Z,26.3
2019-04-28T11:21:28.676Z,26.3
2019-04-28T11:24:34.890Z,26.3
2019-04-28T11:27:41.147Z,26.3
2019-04-28T11:30:47.419Z,26.3
2019-04-28T11:33:53.662Z,26.3
2019-04-28T11:36:59.846Z,26.3
2019-04-28T11:40:06.007Z,26.3
2019-04-28T11:43:12.228Z,26.3
2019-04-28T11:46:18.453Z,26.3
2019-04-28T11:49:24.696Z,26.3
2019-04-28T11:52:30.898Z,26.3
2019-04-28T11:55:37.088Z,26.3
2019-04-28T11:58:43.218Z,26.3
2019-04-28T12:01:49.393Z,26.3
2019-04-28T12:04:55.617Z,26.3
2019-04-28T12:08:01.889Z,26.3
2019-04-28T12:11:08.129Z,26.3
2019-04-28T12:14:14.284Z,26.3
2019-04-28T12:17:20.499Z,26.3
2019-04-28T12:20:26.725Z,26.3
2019-04-28T12:23:32.970Z,26.3
2019-04-28T12:26:39.209Z,26.3
2019-04-28T12:29:45.508Z,26.3
2019-04-28T12:32:51.685Z,26.4
2019-04-28T12:35:57.908Z,26.3
2019-04-28T12:39:04.155Z,26.4
2019-04-28T12:42:10.371Z,26.4
2019-04-28T12:45:16.550Z,26.3
2019-04-28T12:48:22.720Z,26.4
2019-04-28T12:51:28.837Z,26.4
2019-04-28T12:54:35.356Z,26.4
2019-04-28T12:57:41.524Z,26.4
2019-04-28T13:00:47.755Z,26.4
2019-04-28T13:03:53.896Z,26.4
2019-04-28T13:07:00.094Z,26.4
2019-04-28T13:10:06.230Z,26.4
2019-04-28T13:13:12.447Z,26.4
2019-04-28T13:16:18.644Z,26.4
2019-04-28T13:19:24.824Z,26.4
2019-04-28T13:22:31.039Z,26.4
2019-04-28T13:25:37.231Z,26.4
2019-04-28T13:28:43.541Z,26.4
2019-04-28T13:31:49.810Z,26.4
2019-04-28T13:34:56.162Z,26.4
2019-04-28T13:38:02.399Z,26.4
2019-04-28T13:41:08.646Z,26.4
2019-04-28T13:44:14.754Z,26.4
2019-04-28T13:47:20.980Z,26.4
2019-04-28T13:50:27.223Z,26.4
2019-04-28T13:53:33.438Z,26.4
2019-04-28T13:56:39.688Z,26.4
2019-04-28T13:59:48.763Z,26.3
2019-04-28T14:02:55.030Z,26.3
2019-04-28T14:06:01.336Z,26.4
2019-04-28T14:09:07.539Z,26.4
2019-04-28T14:12:13.752Z,26.4
2019-04-28T14:15:19.887Z,26.4
2019-04-28T14:18:26.183Z,26.4
2019-04-28T14:21:32.403Z,26.4
2019-04-28T14:24:39.024Z,26.4
2019-04-28T14:27:45.315Z,26.4
2019-04-28T14:30:51.570Z,26.4
2019-04-28T14:33:57.795Z,26.4
2019-04-28T14:37:04.114Z,26.4
2019-04-28T14:40:10.461Z,26.4
2019-04-28T14:43:16.820Z,26.4
2019-04-28T14:46:23.153Z,26.4
2019-04-28T14:49:29.666Z,26.4
2019-04-28T14:52:35.885Z,26.4
2019-04-28T14:55:42.097Z,26.3
2019-04-28T14:58:48.376Z,26.3
2019-04-28T15:01:54.631Z,26.3
2019-04-28T15:05:00.842Z,26.3
2019-04-28T15:08:07.165Z,26.3
2019-04-28T15:11:13.492Z,26.3
2019-04-28T15:14:20.008Z,26.3
2019-04-28T15:17:26.321Z,26.3
2019-04-28T15:20:32.773Z,26.3
2019-04-28T15:23:39.131Z,26.3
2019-04-28T15:26:45.272Z,26.3
2019-04-28T15:29:51.496Z,26.3
2019-04-28T15:32:57.632Z,26.3
2019-04-28T15:36:03.804Z,26.3
2019-04-28T15:39:09.960Z,26.3
2019-04-28T15:42:16.207Z,26.2
2019-04-28T15:45:22.389Z,26.2
2019-04-28T15:48:28.592Z,26.2
2019-04-28T15:51:34.750Z,26.2
2019-04-28T15:54:41.006Z,26.2
2019-04-28T15:57:47.376Z,26.2
2019-04-28T16:00:53.590Z,26.2
2019-04-28T16:03:59.761Z,26.2
2019-04-28T16:07:05.952Z,26.2
2019-04-28T16:10:12.145Z,26.2
2019-04-28T16:13:18.376Z,26.2
2019-04-28T16:16:24.638Z,26.2
2019-04-28T16:19:31.000Z,26.2
2019-04-28T16:22:37.212Z,26.2
2019-04-28T16:25:43.429Z,26.2
2019-04-28T16:28:49.643Z,26.1
2019-04-28T16:31:55.959Z,26.1
2019-04-28T16:35:02.092Z,26.1
2019-04-28T16:38:08.279Z,26.1
2019-04-28T16:41:14.505Z,26.1
2019-04-28T16:44:20.775Z,26.1
2019-04-28T16:47:26.960Z,26.1
2019-04-28T16:50:33.203Z,26.1
2019-04-28T16:53:39.387Z,26.1
2019-04-28T16:56:45.659Z,26
2019-04-28T16:59:52.318Z,26
2019-04-28T17:02:58.499Z,26
2019-04-28T17:06:04.717Z,26
2019-04-28T17:09:11.007Z,26
2019-04-28T17:12:17.290Z,26
2019-04-28T17:15:23.465Z,26
2019-04-28T17:18:29.697Z,26
2019-04-28T17:21:35.930Z,26
2019-04-28T17:24:42.122Z,25.9
2019-04-28T17:27:48.244Z,26
2019-04-28T17:30:54.527Z,25.9
2019-04-28T17:34:00.711Z,25.9
2019-04-28T17:37:06.915Z,25.9
2019-04-28T17:40:13.135Z,25.9
2019-04-28T17:43:19.318Z,25.9
2019-04-28T17:46:25.524Z,25.9
2019-04-28T17:49:31.808Z,25.8
2019-04-28T17:52:37.953Z,25.8
2019-04-28T17:55:44.166Z,25.8
2019-04-28T17:58:50.281Z,25.8
2019-04-28T18:01:56.463Z,25.8
2019-04-28T18:05:02.737Z,25.8
2019-04-28T18:08:20.340Z,25.7
2019-04-28T18:11:27.167Z,25.7
2019-04-28T18:14:33.425Z,25.8
2019-04-28T18:17:39.704Z,25.7
2019-04-28T18:20:45.905Z,25.7
2019-04-28T18:23:52.087Z,25.7
2019-04-28T18:26:58.320Z,25.7
2019-04-28T18:30:04.427Z,25.6
2019-04-28T18:33:10.609Z,25.7
2019-04-28T18:36:16.844Z,25.6
2019-04-28T18:39:23.080Z,25.6
2019-04-28T18:42:32.008Z,25.6
2019-04-28T18:45:38.119Z,25.6
2019-04-28T18:48:44.321Z,25.6
2019-04-28T18:51:50.535Z,25.6
2019-04-28T18:54:56.788Z,25.6
2019-04-28T18:58:03.060Z,25.5
2019-04-28T19:01:09.307Z,25.5
2019-04-28T19:04:15.483Z,25.5
2019-04-28T19:07:21.574Z,25.5
2019-04-28T19:10:27.853Z,25.5
2019-04-28T19:13:34.114Z,25.5
2019-04-28T19:16:40.345Z,25.5
2019-04-28T19:19:46.541Z,25.4
2019-04-28T19:22:52.716Z,25.4
2019-04-28T19:25:58.952Z,25.4
2019-04-28T19:29:05.140Z,25.4
2019-04-28T19:32:11.378Z,25.4
2019-04-28T19:35:17.675Z,25.4
2019-04-28T19:38:23.899Z,25.4
2019-04-28T19:41:30.166Z,25.3
2019-04-28T19:44:36.411Z,25.3
2019-04-28T19:47:42.675Z,25.3
2019-04-28T19:50:48.901Z,25.3
2019-04-28T19:53:55.146Z,25.3
2019-04-28T19:57:01.336Z,25.3
2019-04-28T20:00:07.594Z,25.3
2019-04-28T20:03:13.806Z,25.3
2019-04-28T20:06:19.927Z,25.2
2019-04-28T20:09:26.163Z,25.2
2019-04-28T20:12:32.361Z,25.2
2019-04-28T20:15:38.589Z,25.2
2019-04-28T20:18:44.800Z,25.2
2019-04-28T20:21:54.147Z,25.2
2019-04-28T20:25:00.388Z,25.2
2019-04-28T20:28:06.566Z,25.1
2019-04-28T20:31:12.731Z,25.1
2019-04-28T20:34:18.897Z,25.1
2019-04-28T20:37:25.122Z,25.1
2019-04-28T20:40:31.333Z,25.1
2019-04-28T20:43:37.560Z,25.1
2019-04-28T20:46:43.808Z,25
2019-04-28T20:49:49.925Z,25
2019-04-28T20:52:56.096Z,25
2019-04-28T20:56:02.346Z,25
2019-04-28T20:59:08.515Z,25
2019-04-28T21:02:14.733Z,25
2019-04-28T21:05:20.849Z,25
2019-04-28T21:08:27.081Z,25
2019-04-28T21:11:33.438Z,25
2019-04-28T21:14:39.670Z,25
2019-04-28T21:17:45.876Z,25
2019-04-28T21:20:52.084Z,24.9
2019-04-28T21:23:58.340Z,24.9
2019-04-28T21:27:04.595Z,24.9
2019-04-28T21:30:10.810Z,24.9
2019-04-28T21:33:16.941Z,24.9
2019-04-28T21:36:23.111Z,24.9
2019-04-28T21:39:29.328Z,24.9
2019-04-28T21:42:35.590Z,24.9
2019-04-28T21:45:41.851Z,24.9
2019-04-28T21:48:48.096Z,24.9
2019-04-28T21:51:54.317Z,24.8
2019-04-28T21:55:00.492Z,24.9
2019-04-28T21:58:06.773Z,24.8
2019-04-28T22:01:12.943Z,24.8
2019-04-28T22:04:19.134Z,24.8
2019-04-28T22:07:25.308Z,24.8
2019-04-28T22:10:31.531Z,24.8
2019-04-28T22:13:37.735Z,24.8
2019-04-28T22:16:46.550Z,24.8
2019-04-28T22:19:52.692Z,24.8
2019-04-28T22:22:58.862Z,24.7
2019-04-28T22:26:05.116Z,24.7
2019-04-28T22:29:11.282Z,24.7
2019-04-28T22:32:17.450Z,24.7
2019-04-28T22:35:23.586Z,24.7
2019-04-28T22:38:29.813Z,24.7
2019-04-28T22:41:35.993Z,24.7
2019-04-28T22:44:42.240Z,24.7
2019-04-28T22:47:48.432Z,24.7
2019-04-28T22:50:54.684Z,24.7
2019-04-28T22:54:00.835Z,24.6
2019-04-28T22:57:07.015Z,24.6
2019-04-28T23:00:13.190Z,24.6
2019-04-28T23:03:19.431Z,24.6
2019-04-28T23:06:25.578Z,24.6
2019-04-28T23:09:31.828Z,24.6
2019-04-28T23:12:37.999Z,24.6
2019-04-28T23:15:44.170Z,24.6
2019-04-28T23:18:50.375Z,24.6
2019-04-28T23:21:59.057Z,24.6
2019-04-28T23:25:05.199Z,24.6
2019-04-28T23:28:11.390Z,24.6
2019-04-28T23:31:17.583Z,24.5
2019-04-28T23:34:23.811Z,24.5
2019-04-28T23:37:30.029Z,24.5
2019-04-28T23:40:36.293Z,24.5
2019-04-28T23:43:42.461Z,24.5
2019-04-28T23:46:48.561Z,24.5
2019-04-28T23:49:54.750Z,24.5
2019-04-28T23:53:01.049Z,24.5
2019-04-28T23:56:07.188Z,24.5
2019-04-28T23:59:13.512Z,24.4
